Toyama Airport, Japan

6:28 AM JST on February 13, 2016 (GMT +0900)
Toyama | | Change Station
CLOSE
Current Station
Airport
Location: Toyama Airport,
Elevation: 89 ft
Nearby Weather Stations

Elev 89 ft 36.65 °N, 137.19 °E | Updated 18 minutes ago

Mostly Cloudy
Mostly Cloudy
57 °F
Feels Like 57 °F
N
10
Wind Variable Wind from South

Today
High -- | Low -- °F
--% Chance of Precip.
Yesterday
High -- | Low -- °F
Precip. -- in
Pressure 30.12 in
Visibility 6.2 miles
Clouds Few 3000 ft
Mostly Cloudy 5000 ft
Mostly Cloudy 7000 ft
Dew Point 41 °F
Humidity 55%
Rainfall 0.00 in
Snow Depth Not available.
6:42 AM 5:28 PM
Waxing Crescent, 24% visible
SPECI RJNT 122110Z 18009KT 9999 FEW030 BKN050 BKN070 14/05 Q1020 RMK 1CU030 5SC050 6AC070 A3013
Pressure 30.12 in
Visibility 6.2 miles
Clouds Few 3000 ft
Mostly Cloudy 5000 ft
Mostly Cloudy 7000 ft
Dew Point 41 °F
Humidity 55%
Rainfall 0.00 in
Snow Depth Not available.
6:42 AM 5:28 PM
Waxing Crescent, 24% visible
SPECI RJNT 122110Z 18009KT 9999 FEW030 BKN050 BKN070 14/05 Q1020 RMK 1CU030 5SC050 6AC070 A3013

10-Day Weather Forecast

No radar image for this location.
×

Almanac

Astronomy

Feb. 13, 2016 Rise Set
Actual Time
Civil Twilight
Nautical Twilight
Astronomical Twilight
Moon
Length of Visible Light
Length of Day
Tomorrow will be .
, % of the Moon is Illuminated

Today's Extremes

Country Highs Country Lows

Community

WunderPhotos

Upload Photos

1,892,403 photos uploaded!

WunderBlog® & News

Nearby

Air Quality

  Air Quality AQ Index Pollutant
Not available.

Snow Depth

Station Depth Elevation

Earthquake Activity

City Distance Mag. Time & Date
Minimum magnitude displayed is 2.5.

Coastal Water Temperatures

Place Temperature

Stations

Nearby Weather Stations

Station Location Temp. Windchill Dew Point Humidity Wind Precip. Elev Updated Type